ADDS TAF Board (Experimental) INFO Settings
IDs: Format: Expanded Condensed

KFLL - Ft Lauderdale-Hollyw, FL, US

Issued at 1506 UTC 06 Feb 2016
Updated at: 1528 UTC 06 Feb 2016
Time1453Z 06/16Z 06/17Z 06/18Z 06/19Z 06/20Z 06/21Z 06/22Z 06/23Z 07/00Z 07/01Z 07/02Z 07/03Z 07/04Z
Type OBS PRVL PRVL PRVL PRVL PRVL PRVL PRVL PRVL PRVL
  [PRB30]  
PRVL
  [PRB30]  
PRVL
  [PRB30]  
PRVL PRVL
VIS 10 >6 >6 >6 >6 >6 >6 >6 >6 >6
  [4]  
>6
  [4]  
>6
  [4]  
>6 >6
CIG -- 60 60 60 60 60 60 60 60 25
  [15]  
25
  [15]  
25
  [15]  
15 15
Cover SCT BKN BKN BKN BKN BKN BKN BKN BKN OVC
  [BKN]  
OVC
  [BKN]  
OVC
  [BKN]  
OVC OVC
FltCat VFR VFR VFR VFR VFR VFR VFR VFR VFR MVFR
  [MVFR]  
MVFR
  [MVFR]  
MVFR
  [MVFR]  
MVFR MVFR
WX -- VCSH VCSH VCSH VCSH VCSH VCSH VCSH VCSH VCSH
  [SHRA]  
VCSH
  [SHRA]  
VCSH
  [SHRA]  
VCSH VCSH
WDir 130 40 40 40 40 40 40 40 40 30
[30]
30
[30]
30
[30]
320 320
WSpd 3 7 7 7 7 7 7 7 7 6
  [6]  
6
  [6]  
6
  [6]  
6 6
WGst -- -- -- -- -- -- -- -- -- --
  [--]  
--
  [--]  
--
  [--]  
-- --
R10/28
XWnd -2 5 5 5 5 5 5 5 5 5 5 5 5 5
XGst -- -- -- -- -- -- -- -- -- 0 0 0 -- --
HWnd 2 4 4 4 4 4 4 4 4 3 3 3 -4 -4
HGst -- -- -- -- -- -- -- -- -- 0 0 0 -- --

NOTE: TEMPO conditions in [brackets]. Keep in mind TEMPO conditions might be better (lower impact) than prevailing conditions.

Raw TAF
KFLL 061506Z 0615/0712 04007KT P6SM VCSH SCT025 BKN060
  FM070000 03006KT P6SM VCSH SCT015 OVC025
  PROB30 0700/0703 4SM SHRA BKN015
  FM070300 32006KT P6SM VCSH SCT010 BKN015 OVC025


Raw METAR
KFLL 061453Z 13003KT 10SM FEW030 SCT065 SCT250 23/17 A3013 RMK AO2 SLP203 T02330172 51008
KFLL 061353Z 00000KT 10SM FEW030 SCT070 21/16 A3013 RMK AO2 SLP201 T02060161
KFLL 061253Z 32007KT 10SM SCT027 BKN036 BKN070 17/15 A3013 RMK AO2 SLP201 T01720150

METAR Board
Radar Display
Forecast Discussion

TAF Board Legend

Potential Impact
Threat None Slight Moderate High
Visibility (sm) ≥5.1 5.1>X≥3 3>X≥1 <1
Ceiling (100 ft) ≥30.1 30.1>X≥10 10>X≥5 <5
Wind Speed (kt) <10 10≤X<20 20≤X<30 ≥30
Wind Gust (kt) <15 15≤X<25 25≤X<35 ≥35
Weather No Wx Reported VCTS,-TS,-FZRA,SN TS,FZRA +TS,+FZRA,+SN